• Join FlightAware (Why Join?)
  • Login
  • US Flag 
09:54PM EDT


 

Airport Tracker/Info


-or-


 

Live Flight TrackerFlight Track Log ✈ AVN10 ✈ 13-Nov-2013 ✈ NVVV / VLI - YSSY / SYD

Flight Track Log - Related Links

Times and Time Zones

All times are in EST time to prevent confusion due to time zone crossing. See the AVN10 flight status page for this flight to view local times or setup timezone preferences in your user account.

Time Position Orientation Groundspeed Altitude Reporting Facility
EST Latitude Longitude Course Direction KTS MPH feet Rate Location/Type
11:16PM -18.0129 168.1600 206° Southwest  Level FlightAware Approximate
11:17PM -18.1175 168.1066 206° Southwest  Level FlightAware Approximate
11:18PM -18.2220 168.0531 206° Southwest  Level FlightAware Approximate
11:19PM -18.3264 167.9996 206° Southwest  Level FlightAware Approximate
11:20PM -18.4309 167.9460 206° Southwest  Level FlightAware Approximate
11:21PM -18.5190 167.8662 204° Southwest  Level Estimated
11:22PM -18.6254 167.8169 204° Southwest  Level FlightAware Approximate
11:23PM -18.7317 167.7675 204° Southwest  Level FlightAware Approximate
11:24PM -18.8381 167.7180 204° Southwest  Level FlightAware Approximate
11:25PM -18.9444 167.6685 204° Southwest  Level FlightAware Approximate
11:26PM -19.0507 167.6190 204° Southwest  Level FlightAware Approximate
11:27PM -19.1570 167.5694 204° Southwest  Level FlightAware Approximate
11:28PM -19.2633 167.5197 204° Southwest  Level FlightAware Approximate
11:29PM -19.3696 167.4699 204° Southwest  Level FlightAware Approximate
11:30PM -19.4758 167.4201 204° Southwest  Level FlightAware Approximate
11:31PM -19.5821 167.3702 204° Southwest  Level FlightAware Approximate
11:32PM -19.6883 167.3203 204° Southwest  Level FlightAware Approximate
11:33PM -19.7945 167.2702 204° Southwest  Level FlightAware Approximate
11:34PM -19.9007 167.2201 204° Southwest  Level FlightAware Approximate
11:35PM -20.0069 167.1700 204° Southwest  Level FlightAware Approximate
11:36PM -20.1131 167.1198 204° Southwest  Level FlightAware Approximate
11:37PM -20.2193 167.0695 204° Southwest  Level FlightAware Approximate
11:38PM -20.3254 167.0191 204° Southwest  Level FlightAware Approximate
11:39PM -20.4316 166.9687 204° Southwest  Level FlightAware Approximate
11:40PM -20.5377 166.9182 204° Southwest  Level FlightAware Approximate
11:41PM -20.6438 166.8676 204° Southwest  Level FlightAware Approximate
11:42PM -20.7499 166.8170 204° Southwest  Level FlightAware Approximate
11:43PM -20.8560 166.7663 204° Southwest  Level FlightAware Approximate
11:43PM -20.5240 166.9150 204° Southwest 406 467 36,000  Level FlightAware
11:43PM -20.6000 166.8800 203° Southwest 406 467 36,000  Level FlightAware
11:44PM -20.6570 166.8530 204° Southwest 407 468 36,000  Level FlightAware
11:44PM -20.7120 166.8270 204° Southwest 408 470 36,000  Level FlightAware
11:45PM -20.8110 166.7800 204° Southwest 410 472 36,000  Level FlightAware
11:46PM -20.8710 166.7520 204° Southwest 410 472 36,000  Level FlightAware
11:46PM -20.9290 166.7250 203° Southwest 410 472 36,000  Level FlightAware
11:47PM -21.0340 166.6750 204° Southwest 410 472 36,000  Level FlightAware
11:48PM -21.1230 166.6330 204° Southwest 410 472 36,000  Level FlightAware
11:49PM -21.1860 166.6030 204° Southwest 410 472 36,000  Level FlightAware
11:50PM -21.2860 166.5550 204° Southwest 410 472 36,000  Level FlightAware
11:50PM -21.3440 166.5280 203° Southwest 409 471 36,000  Level FlightAware
11:51PM -21.4320 166.4860 204° Southwest 409 471 36,000  Level FlightAware
11:52PM -21.5300 166.4390 204° Southwest 409 471 36,000  Level FlightAware
11:53PM -21.5840 166.4140 203° Southwest 410 472 36,000  Level FlightAware
11:54PM -21.6730 166.3710 204° Southwest 409 471 36,000  Level FlightAware
11:55PM -21.7730 166.3230 204° Southwest 409 471 36,000  Level FlightAware
11:56PM -21.8890 166.2680 204° Southwest 410 472 36,000  Level FlightAware
11:57PM -21.9800 166.2230 205° Southwest 409 471 36,000  Level FlightAware
11:57PM -22.0220 166.1930 214° Southwest 402 463 36,000  Level FlightAware
11:58PM -22.0950 166.1180 224° Southwest 399 459 36,000  Level FlightAware
11:58PM -22.1300 166.0820 224° Southwest 399 459 36,000  Level FlightAware
11:59PM -22.1690 166.0410 224° Southwest 399 459 36,000  Level FlightAware
12:00AM -22.2560 165.9490 224° Southwest 400 460 36,000  Level FlightAware
12:01AM -22.3350 165.8660 224° Southwest 399 459 36,000  Level FlightAware
12:01AM -22.3770 165.8220 224° Southwest 398 458 36,000 420 Level FlightAware
12:02AM -22.4560 165.7390 224° Southwest 396 456 36,700 900 Climbing FlightAware
12:03AM -22.5290 165.6620 224° Southwest 390 449 37,800 720 Climbing FlightAware
12:04AM -22.5920 165.5950 224° Southwest 392 451 38,000 120 Climbing FlightAware
12:05AM -22.6550 165.5280 224° Southwest 394 453 38,000  Level FlightAware
12:06AM -22.7020 165.4790 224° Southwest 395 455 38,000  Level FlightAware
12:06AM -22.7740 165.4020 225° Southwest 396 456 38,000  Level FlightAware
12:07AM -22.8420 165.3300 224° Southwest 397 457 38,000  Level FlightAware
12:08AM -22.8770 165.2920 225° Southwest 396 456 38,000  Level FlightAware
12:08AM -22.9160 165.2510 224° Southwest 397 457 38,000  Level FlightAware
12:09AM -22.9950 165.1670 224° Southwest 397 457 38,000  Level FlightAware
12:10AM -23.0680 165.0900 224° Southwest 395 455 38,000  Level FlightAware
12:11AM -23.1390 165.0130 225° Southwest 393 452 38,000  Level FlightAware
12:12AM -23.2130 164.9340 224° Southwest 393 452 38,000  Level FlightAware
12:13AM -23.2600 164.8830 225° Southwest 393 452 38,000  Level FlightAware
12:14AM -23.3190 164.8210 224° Southwest 393 452 38,000  Level FlightAware
12:15AM -23.3860 164.7500 224° Southwest 393 452 38,000  Level FlightAware
12:15AM -23.4400 164.6930 224° Southwest 393 452 38,000  Level FlightAware
12:16AM -23.4940 164.6370 224° Southwest 393 452 38,000  Level FlightAware
12:17AM -23.5610 164.5670 224° Southwest 393 452 38,000  Level FlightAware
12:18AM -23.6020 164.5230 225° Southwest 393 452 38,000  Level FlightAware
12:19AM -23.6690 164.4520 224° Southwest 393 452 38,000  Level FlightAware
12:19AM -23.7100 164.4100 223° Southwest 393 452 38,000  Level FlightAware
12:20AM -23.7640 164.3520 225° Southwest 393 452 38,000  Level FlightAware
12:21AM -23.8180 164.2950 224° Southwest 393 452 38,000  Level FlightAware
12:22AM -23.8850 164.2240 224° Southwest 393 452 38,000  Level FlightAware
12:23AM -23.9390 164.1680 223° Southwest 393 452 38,000  Level FlightAware
12:25AM -24.0736 164.0186 225° Southwest  Level FlightAware Approximate
12:26AM -24.1551 163.9279 225° Southwest  Level FlightAware Approximate
12:27AM -24.2366 163.8370 225° Southwest  Level FlightAware Approximate
12:28AM -24.3180 163.7461 226° Southwest  Level FlightAware Approximate
12:29AM -24.3993 163.6550 226° Southwest  Level FlightAware Approximate
12:29AM -24.8519 163.1410 224° Southwest 38,000  Level Aus ATC (Calculated)
12:31AM -24.9581 163.0240 225° Southwest  Level FlightAware Approximate
12:32AM -25.0340 162.9402 225° Southwest  Level FlightAware Approximate
12:32AM -25.1755 162.7786 224° Southwest 38,000  Level Aus ATC (Calculated)
12:33AM -24.9581 163.0240 45° Northeast  Level FlightAware Approximate
12:34AM -25.0340 162.9402 225° Southwest  Level FlightAware Approximate
12:35AM -24.9957 162.9821 46° Northeast  Level FlightAware Approximate
12:35AM -25.4193 162.5036 224° Southwest 38,000  Level Aus ATC (Calculated)
12:36AM -25.4932 162.4176 225° Southwest  Level Estimated
12:37AM -25.5682 162.3325 226° Southwest  Level FlightAware Approximate
12:37AM -25.6435 162.2491 224° Southwest 38,000  Level Aus ATC (Calculated)
12:38AM -25.6432 162.2474 226° Southwest  Level FlightAware Approximate
12:39AM -25.7560 162.1210 226° Southwest  Level FlightAware Approximate
12:40AM -25.8301 162.0364 226° Southwest  Level FlightAware Approximate
12:41AM -25.9041 161.9516 226° Southwest  Level FlightAware Approximate
12:42AM -25.9781 161.8668 226° Southwest  Level FlightAware Approximate
12:43AM -26.0521 161.7819 226° Southwest  Level FlightAware Approximate
12:44AM -26.1259 161.6968 226° Southwest  Level FlightAware Approximate
12:45AM -26.1998 161.6116 226° Southwest  Level FlightAware Approximate
12:46AM -26.2736 161.5264 226° Southwest  Level FlightAware Approximate
12:47AM -26.3473 161.4410 226° Southwest  Level FlightAware Approximate
12:48AM -26.4210 161.3555 226° Southwest  Level FlightAware Approximate
12:49AM -26.4946 161.2699 226° Southwest  Level FlightAware Approximate
12:50AM -26.5682 161.1842 226° Southwest  Level FlightAware Approximate
12:51AM -26.6418 161.0984 226° Southwest  Level FlightAware Approximate
12:52AM -26.7152 161.0125 226° Southwest  Level FlightAware Approximate
12:53AM -26.7887 160.9265 226° Southwest  Level FlightAware Approximate
12:54AM -26.8620 160.8403 226° Southwest  Level FlightAware Approximate
12:55AM -26.9354 160.7541 226° Southwest  Level FlightAware Approximate
12:56AM -27.0086 160.6677 226° Southwest  Level FlightAware Approximate
12:57AM -27.0819 160.5812 226° Southwest  Level FlightAware Approximate
12:58AM -27.1550 160.4946 226° Southwest  Level FlightAware Approximate
12:58AM -27.6890 159.8572 222° Southwest 38,000  Level Aus ATC (Calculated)
12:59AM -27.2281 160.4079 227° Southwest  Level FlightAware Approximate
01:00AM -27.8308 159.6864 227° Southwest  Level FlightAware Approximate
01:00AM -27.8660 159.6438 222° Southwest 38,000  Level Aus ATC (Calculated)
01:02AM -28.0051 159.4753 227° Southwest  Level FlightAware Approximate
01:02AM -28.0603 159.4082 221° Southwest 38,000  Level Aus ATC (Calculated)
01:04AM -28.2015 159.2362 227° Southwest  Level FlightAware Approximate
01:05AM -28.2738 159.1478 227° Southwest  Level FlightAware Approximate
01:05AM -28.4174 158.9716 219° Southwest 36,000  Level Aus ATC (Calculated)
01:06AM -28.2015 159.2362 47° Northeast  Level FlightAware Approximate
01:07AM -28.3284 159.0809 47° Northeast  Level FlightAware Approximate
01:08AM -28.2562 159.1694 47° Northeast  Level FlightAware Approximate
01:09AM -28.1840 159.2579 47° Northeast  Level FlightAware Approximate
01:10AM -28.2562 159.1694 227° Southwest  Level FlightAware Approximate
01:10AM -28.8242 158.4683 214° Southwest 36,000  Level Aus ATC (Calculated)
01:11AM -28.9458 158.3166 211° Southwest 36,000 60 Level Aus ATC (Calculated)
01:12AM -28.7344 158.5800 47° Northeast  Level FlightAware Approximate
01:13AM -28.8579 158.4263 48° Northeast  Level FlightAware Approximate
01:13AM -29.0673 158.1645 206° Southwest 36,000  Level Aus ATC (Calculated)
01:15AM -28.9273 158.3398 48° Northeast  Level FlightAware Approximate
01:15AM -29.2290 157.9612 190° South 36,000  Level Aus ATC (Calculated)
01:16AM -28.8508 158.4352 48° Northeast  Level FlightAware Approximate
01:17AM -29.1083 158.1131 48° Northeast  Level FlightAware Approximate
01:18AM -29.0320 158.2088 48° Northeast  Level FlightAware Approximate
01:19AM -29.1064 158.1112 227° Southwest  Level Estimated
01:20AM -29.1828 158.0154 228° Southwest  Level FlightAware Approximate
01:20AM -29.6720 157.3987 75° East 36,000  Level Aus ATC (Calculated)
01:22AM -29.7995 157.2355 228° Southwest  Level FlightAware Approximate
01:23AM -29.8751 157.1383 228° Southwest  Level FlightAware Approximate
01:24AM -29.9506 157.0409 228° Southwest  Level FlightAware Approximate
01:25AM -30.0261 156.9434 228° Southwest  Level FlightAware Approximate
01:25AM -30.0727 156.8831 60° Northeast 36,000  Level Aus ATC (Calculated)
01:26AM -30.1015 156.8458 228° Southwest  Level FlightAware Approximate
01:27AM -30.1995 156.7186 228° Southwest  Level FlightAware Approximate
01:28AM -30.2747 156.6206 228° Southwest  Level FlightAware Approximate
01:29AM -30.3499 156.5224 228° Southwest  Level FlightAware Approximate
01:30AM -30.4249 156.4242 228° Southwest  Level FlightAware Approximate
01:30AM -30.5110 156.3112 56° Northeast 36,000  Level Aus ATC (Calculated)
01:31AM -30.6301 156.1544 55° Northeast 36,000 960 Level Aus ATC (Calculated)
01:32AM -29.5571 157.8949 228° Southwest 427 491 38,100 1,500 Climbing Aus ATC (RADAR)
01:33AM -29.6081 157.8402 223° Southwest 430 495 38,100  Level Aus ATC (RADAR)
01:34AM -29.7049 157.7323 224° Southwest 386 444 38,100  Level Aus ATC (RADAR)
01:34AM -29.7266 157.7094 222° Southwest 410 472 38,100  Level Aus ATC (RADAR)
01:34AM -29.7402 157.6949 223° Southwest 410 472 38,100  Level Aus ATC (RADAR)
01:35AM -29.8042 157.6205 225° Southwest 360 414 38,100  Level Aus ATC (RADAR)
01:37AM -29.9510 157.4613 223° Southwest 423 487 38,100  Level Aus ATC (RADAR)
01:37AM -29.9842 157.4190 228° Southwest 187 215 38,100  Level Aus ATC (RADAR)
01:38AM -30.0345 157.3635 224° Southwest 347 399 38,100  Level Aus ATC (RADAR)
01:39AM -30.1226 157.2673 223° Southwest 406 467 38,100  Level Aus ATC (RADAR)
01:39AM -30.1664 157.2194 223° Southwest 417 480 38,100  Level Aus ATC (RADAR)
01:40AM -30.2157 157.1643 224° Southwest 421 484 38,100  Level Aus ATC (RADAR)
01:40AM -30.2724 157.1010 224° Southwest 423 487 38,100  Level Aus ATC (RADAR)
01:41AM -30.3149 157.0534 224° Southwest 423 487 38,100  Level Aus ATC (RADAR)
01:42AM -30.3633 156.9989 224° Southwest 420 483 38,100  Level Aus ATC (RADAR)
01:43AM -30.4479 156.9039 224° Southwest 423 487 38,100  Level Aus ATC (RADAR)
01:43AM -30.4971 156.8483 224° Southwest 423 487 38,100  Level Aus ATC (RADAR)
01:44AM -30.5884 156.7454 224° Southwest 422 486 38,100  Level Aus ATC (RADAR)
01:45AM -30.6232 156.7063 224° Southwest 421 484 38,100  Level Aus ATC (RADAR)
01:45AM -30.6650 156.6589 224° Southwest 421 484 38,100  Level Aus ATC (RADAR)
01:46AM -30.7351 156.5794 224° Southwest 422 486 38,100  Level Aus ATC (RADAR)
01:47AM -30.7840 156.5239 224° Southwest 421 484 38,100 -120 Level Aus ATC (RADAR)
01:47AM -30.8463 156.4529 224° Southwest 419 482 38,000 -120 Descending Aus ATC (RADAR)
01:48AM -30.8877 156.4057 224° Southwest 418 481 38,000  Level Aus ATC (RADAR)
01:48AM -30.9356 156.3509 224° Southwest 415 478 38,000  Level Aus ATC (RADAR)
01:50AM -31.0373 156.2344 224° Southwest 411 473 38,100  Climbing Aus ATC (RADAR)
01:50AM -31.0646 156.2034 224° Southwest 411 473 38,000 -120 Descending Aus ATC (RADAR)
01:51AM -31.1193 156.1404 225° Southwest 413 475 38,000  Level Aus ATC (RADAR)
01:51AM -31.1878 156.0616 225° Southwest 415 478 38,000  Level Aus ATC (RADAR)
01:52AM -31.1920 156.0570 224° Southwest 414 476 38,000  Level FlightAware
01:52AM -31.2355 156.0069 224° Southwest 413 475 38,000  Level Aus ATC (RADAR)
01:52AM -31.2360 156.0070 224° Southwest 414 476 38,000  Level FlightAware
01:53AM -31.3170 155.9129 224° Southwest 412 474 38,000  Level Aus ATC (RADAR)
01:53AM -31.3300 155.8980 225° Southwest 462 532 38,000  Level FlightAware
01:53AM -31.3439 155.8816 225° Southwest 411 473 38,000  Level Aus ATC (RADAR)
01:55AM -31.4662 155.7398 225° Southwest 413 475 38,000  Level Aus ATC (RADAR)
01:55AM -31.4868 155.7159 225° Southwest 415 478 38,000  Level Aus ATC (RADAR)
01:56AM -31.5417 155.6521 225° Southwest 417 480 38,000  Level Aus ATC (RADAR)
01:56AM -31.5969 155.5881 225° Southwest 420 483 38,000  Level Aus ATC (RADAR)
01:57AM -31.6444 155.5322 225° Southwest 417 480 38,000  Level Aus ATC (RADAR)
01:58AM -31.7154 155.4506 224° Southwest 430 495 38,000  Level Aus ATC (RADAR)
01:58AM -31.7412 155.4191 226° Southwest 420 483 38,000  Level Aus ATC (RADAR)
01:59AM -31.7898 155.3623 225° Southwest 423 487 38,000  Level Aus ATC (RADAR)
02:00AM -31.8650 155.2730 225° Southwest 426 490 38,000  Level FlightAware
02:00AM -31.8870 155.2480 225° Southwest 425 489 38,000  Level Aus ATC (RADAR)
02:00AM -31.9081 155.2233 225° Southwest 426 490 38,000  Level Aus ATC (RADAR)
02:01AM -31.9430 155.1820 225° Southwest 427 491 38,000  Level FlightAware
02:01AM -31.9569 155.1659 225° Southwest 427 491 38,000  Level Aus ATC (RADAR)
02:01AM -31.9920 155.1240 225° Southwest 425 489 38,000  Level FlightAware
02:01AM -32.0189 155.0923 225° Southwest 425 489 38,000  Level Aus ATC (RADAR)
02:02AM -32.0673 155.0348 225° Southwest 425 489 38,000  Level Aus ATC (RADAR)
02:02AM -32.0720 155.0290 225° Southwest 425 489 38,000  Level FlightAware
02:03AM -32.1296 154.9612 225° Southwest 424 488 38,000  Level Aus ATC (RADAR)
02:03AM -32.1540 154.9320 225° Southwest 425 489 38,000  Level FlightAware
02:03AM -32.1712 154.9122 225° Southwest 424 488 38,000  Level Aus ATC (RADAR)
02:04AM -32.2020 154.8740 225° Southwest 425 489 38,000  Level FlightAware
02:04AM -32.2192 154.8551 225° Southwest 422 486 38,000  Level Aus ATC (RADAR)
02:04AM -32.2360 154.8350 224° Southwest 426 490 38,000  Level FlightAware
02:05AM -32.2860 154.7750 225° Southwest 427 491 38,000  Level FlightAware
02:06AM -32.3719 154.6723 225° Southwest 427 491 38,000  Level Aus ATC (RADAR)
02:06AM -32.3760 154.6670 225° Southwest 429 494 38,000  Level FlightAware
02:06AM -32.3928 154.6474 225° Southwest 427 491 38,000  Level Aus ATC (RADAR)
02:06AM -32.4090 154.6280 225° Southwest 429 494 38,000  Level FlightAware
02:07AM -32.4488 154.5804 225° Southwest 431 496 38,000  Level Aus ATC (RADAR)
02:07AM -32.4790 154.5440 225° Southwest 432 497 38,000  Level FlightAware
02:07AM -32.5121 154.5049 225° Southwest 432 497 38,000  Level Aus ATC (RADAR)
02:08AM -32.5610 154.4461 225° Southwest 431 496 38,000  Level Aus ATC (RADAR)
02:08AM -32.5610 154.4450 225° Southwest 432 497 38,000  Level FlightAware
02:09AM -32.6100 154.3860 225° Southwest 432 497 38,000  Level FlightAware
02:09AM -32.6311 154.3616 225° Southwest 433 498 38,000  Level Aus ATC (RADAR)
02:09AM -32.6520 154.3364 225° Southwest 432 497 38,000  Level Aus ATC (RADAR)
02:09AM -32.6600 154.3260 225° Southwest 432 497 38,000  Level FlightAware
02:10AM -32.7090 154.2670 225° Southwest 434 499 38,000  Level FlightAware
02:10AM -32.7292 154.2431 225° Southwest 433 498 38,000 -180 Level Aus ATC (RADAR)
02:11AM -32.7781 154.1833 225° Southwest 434 499 37,900  Descending Aus ATC (RADAR)
02:11AM -32.7880 154.1710 225° Southwest 435 501 38,000  Climbing FlightAware
02:11AM -32.8344 154.1153 225° Southwest 434 499 37,900  Descending Aus ATC (RADAR)
02:11AM -32.8380 154.1100 226° Southwest 435 501 38,000 120 Climbing FlightAware
02:12AM -32.8870 154.0510 226° Southwest 436 502 38,000 -240 Level FlightAware
02:12AM -32.8972 154.0388 226° Southwest 436 502 37,900  Descending Aus ATC (RADAR)
02:12AM -32.9280 154.0010 226° Southwest 434 499 38,000  Climbing FlightAware
02:13AM -32.9816 153.9367 226° Southwest 434 499 37,900  Descending Aus ATC (RADAR)
02:13AM -33.0190 153.8900 226° Southwest 432 497 38,000  Climbing FlightAware
02:14AM -33.0929 153.7996 226° Southwest 436 502 37,900  Descending Aus ATC (RADAR)
02:14AM -33.0920 153.8010 226° Southwest 434 499 38,000 120 Climbing FlightAware
02:15AM -33.1530 153.7260 225° Southwest 434 499 38,000 -120 Level FlightAware
02:15AM -33.1835 153.6883 226° Southwest 434 499 37,900 -240 Descending Aus ATC (RADAR)
02:16AM -33.2045 153.6628 225° Southwest 433 498 37,900  Level Aus ATC (RADAR)
02:16AM -33.2521 153.6039 225° Southwest 423 487 37,900 120 Level Aus ATC (RADAR)
02:16AM -33.2550 153.6000 225° Southwest 434 499 38,000  Climbing FlightAware
02:17AM -33.3166 153.5247 225° Southwest 437 503 37,900  Descending Aus ATC (RADAR)
02:17AM -33.3460 153.4880 226° Southwest 437 503 38,000  Climbing FlightAware
02:18AM -33.3727 153.4554 226° Southwest 438 504 37,900  Descending Aus ATC (RADAR)
02:18AM -33.4320 153.3820 226° Southwest 438 504 38,000  Climbing FlightAware
02:18AM -33.4359 153.3772 226° Southwest 437 503 37,900 -420 Descending Aus ATC (RADAR)
02:19AM -33.4570 153.3512 226° Southwest 438 504 37,900 180 Level Aus ATC (RADAR)
02:19AM -33.4780 153.3240 226° Southwest 437 503 38,000  Climbing FlightAware
02:19AM -33.5131 153.2815 226° Southwest 437 503 37,900  Descending Aus ATC (RADAR)
02:19AM -33.5200 153.2730 225° Southwest 437 503 38,000 120 Climbing FlightAware
02:20AM -33.5710 153.2090 226° Southwest 436 502 38,000  Level FlightAware
02:21AM -33.6450 153.1160 226° Southwest 435 501 38,000 -120 Level FlightAware
02:21AM -33.6523 153.1077 226° Southwest 434 499 37,900 -180 Descending Aus ATC (RADAR)
02:22AM -33.7010 153.0472 226° Southwest 433 498 37,900  Level Aus ATC (RADAR)
02:22AM -33.7210 153.0210 226° Southwest 430 495 37,900 -1,140 Level FlightAware
02:22AM -33.7640 152.9680 226° Southwest 423 487 37,000 -2,220 Descending FlightAware
02:23AM -33.7822 152.9442 226° Southwest 425 489 36,400 -2,760 Descending Aus ATC (RADAR)
02:23AM -33.8060 152.9140 226° Southwest 425 489 35,500 -3,240 Descending FlightAware
02:23AM -33.8218 152.8944 226° Southwest 423 487 34,800 -3,540 Descending Aus ATC (RADAR)
02:24AM -33.8921 152.8062 226° Southwest 434 499 32,100 -2,940 Descending Aus ATC (RADAR)
02:24AM -33.8960 152.8010 226° Southwest 432 497 32,100 -2,400 Level FlightAware
02:24AM -33.9128 152.7804 226° Southwest 433 498 31,500 -2,400 Descending Aus ATC (RADAR)
02:25AM -33.9590 152.7220 226° Southwest 420 483 30,200 -2,340 Descending FlightAware
02:25AM -33.9868 152.6871 226° Southwest 421 484 29,400 -2,400 Descending Aus ATC (RADAR)
02:25AM -33.9970 152.6730 226° Southwest 413 475 29,100 -2,520 Descending FlightAware
02:26AM -34.0248 152.6389 226° Southwest 408 470 28,200 -2,400 Descending Aus ATC (RADAR)
02:26AM -34.0490 152.6070 226° Southwest 402 463 27,500 -2,340 Descending FlightAware
02:26AM -34.0578 152.5970 226° Southwest 405 466 27,200 -2,280 Descending Aus ATC (RADAR)
02:27AM -34.0780 152.5320 226° Southwest 361 415 26,000 -2,280 Descending FlightAware
02:27AM -34.0805 152.5186 226° Southwest 393 452 25,700 -2,220 Descending Aus ATC (RADAR)
02:27AM -34.0730 152.4730 226° Southwest 354 407 24,900 -2,280 Descending FlightAware
02:27AM -34.0698 152.4313 226° Southwest 355 409 24,000 -2,280 Descending Aus ATC (RADAR)
02:28AM -34.0660 152.3910 226° Southwest 363 418 23,300 -2,280 Descending FlightAware
02:28AM -34.0629 152.3613 226° Southwest 359 413 22,700 -2,340 Descending Aus ATC (RADAR)
02:29AM -34.0560 152.2840 276° West 354 407 21,300 -2,280 Descending FlightAware
02:29AM -34.0546 152.2725 226° Southwest 354 407 21,000 -2,700 Descending Aus ATC (RADAR)
02:29AM -34.0503 152.2243 276° West 348 400 20,100 -2,460 Descending Aus ATC (RADAR)
02:30AM -34.0453 152.1777 277° West 339 390 19,000 -2,160 Descending FlightAware ADS-B
02:30AM -34.0372 152.0939 277° West 330 380 17,600 -1,980 Descending FlightAware ADS-B
02:31AM -34.0316 152.0362 277° West 324 373 16,500 -1,980 Descending FlightAware ADS-B
02:31AM -34.0260 151.9798 277° West 320 368 15,500 -2,280 Descending FlightAware ADS-B
02:32AM -34.0206 151.9280 277° West 316 364 14,200 -2,280 Descending FlightAware ADS-B
02:33AM -34.0137 151.8591 277° West 314 361 12,900 -1,980 Descending FlightAware ADS-B
02:33AM -34.0067 151.7953 277° West 310 357 11,700 -1,920 Descending Aus ATC (RADAR)
02:33AM -34.0051 151.7746 277° West 315 362 11,400 -1,860 Descending FlightAware ADS-B
02:34AM -34.0005 151.7209 276° West 313 360 10,400 -1,500 Descending FlightAware ADS-B (YSSY / SYD)
02:34AM -33.9956 151.6697 277° West 310 357 9,900 -1,020 Descending FlightAware ADS-B
02:35AM -33.9922 151.6379 277° West 310 357 9,600 -1,080 Descending FlightAware ADS-B
02:35AM -33.9956 151.6697 97° East 311 358 9,100 -1,500 Descending FlightAware ADS-B (YSSY / SYD)
02:35AM -33.9830 151.5551 277° West 308 354 8,400 -2,280 Descending FlightAware ADS-B (YSSY / SYD)
02:36AM -33.9799 151.5290 278° West 308 354 7,700 -1,800 Descending FlightAware ADS-B (YSSY / SYD)
02:36AM -33.9766 151.5030 279° West 297 342 7,500 -600 Descending FlightAware ADS-B (YSSY / SYD)
02:36AM -33.9731 151.4756 279° West 277 319 7,400 -360 Descending FlightAware ADS-B (YSSY / SYD)
02:37AM -33.9705 151.4530 278° West 263 303 7,300 -900 Descending FlightAware ADS-B
02:37AM -33.9724 151.4339 263° West 263 303 7,000 -1,860 Descending FlightAware ADS-B
02:37AM -33.9733 151.4310 250° West 264 304 6,900 -2,040 Descending FlightAware ADS-B (YSSY / SYD)
02:37AM -33.9765 151.4234 243° Southwest 267 307 6,700 -2,160 Descending FlightAware ADS-B
02:37AM -33.9823 151.4145 232° Southwest 271 312 6,400 -1,320 Descending FlightAware ADS-B
02:37AM -33.9827 151.4140 222° Southwest 271 312 6,400 -720 Level FlightAware ADS-B (YSSY / SYD)
02:37AM -33.9928 151.4053 215° Southwest 267 307 6,300 -1,380 Descending FlightAware ADS-B
02:37AM -34.0143 151.3953 201° Southwest 273 314 5,900 -1,260 Descending FlightAware ADS-B (YSSY / SYD)
02:38AM -34.0268 151.3899 200° South 272 313 5,700 -1,620 Descending FlightAware ADS-B (YSSY / SYD)
02:38AM -34.0507 151.3794 200° South 272 313 5,100 -1,680 Descending FlightAware ADS-B (YSSY / SYD)
02:38AM -34.0734 151.3696 200° South 271 312 4,600 -1,380 Descending FlightAware ADS-B (YSSY / SYD)
02:39AM -34.0976 151.3590 200° South 266 306 4,200 -1,020 Descending FlightAware ADS-B (YSSY / SYD)
02:39AM -34.1178 151.3500 200° South 265 305 4,000 -840 Descending FlightAware ADS-B
02:39AM -34.1390 151.3374 206° Southwest 254 292 3,700 -600 Descending FlightAware ADS-B
02:39AM -34.1460 151.3265 232° Southwest 242 278 3,700 -300 Level FlightAware ADS-B
02:40AM -34.1501 151.3140 248° West 231 266 3,600 -240 Descending FlightAware ADS-B
02:40AM -34.1557 151.2940 252° West 218 251 3,600 -240 Level FlightAware ADS-B
02:40AM -34.1591 151.2750 257° West 202 232 3,500 -480 Descending FlightAware ADS-B
02:40AM -34.1581 151.2681 281° West 196 226 3,400 -960 Descending FlightAware ADS-B
02:40AM -34.1556 151.2625 298° West 201 231 3,300 -600 Descending FlightAware ADS-B (YSSY / SYD)
02:40AM -34.1537 151.2596 310° West 190 219 3,300 -540 Level FlightAware ADS-B
02:41AM -34.1491 151.2547 318° Northwest 189 217 3,200 -720 Descending FlightAware ADS-B (YSSY / SYD)
02:41AM -34.1395 151.2456 322° Northwest 187 215 3,100 -600 Descending FlightAware ADS-B (YSSY / SYD)
02:41AM -34.1368 151.2431 322° Northwest 186 214 2,900 -600 Descending FlightAware ADS-B (YSSY / SYD)
02:41AM -34.1368 151.2431 322° Northwest 186 214 2,800 -660 Descending FlightAware ADS-B (YSSY / SYD)
02:42AM -34.1008 151.2159 328° Northwest 169 194 2,500 -600 Descending FlightAware ADS-B
02:42AM -34.0788 151.2104 348° North 167 192 2,300 -720 Descending FlightAware ADS-B
02:43AM -34.0617 151.2059 348° North 164 189 1,900 -840 Descending FlightAware ADS-B
02:43AM -34.0474 151.2021 348° North 151 174 1,700 -720 Descending FlightAware ADS-B
02:43AM -34.0329 151.1983 348° North 138 159 1,400 -840 Descending FlightAware ADS-B
02:44AM -34.0193 151.1949 348° North 138 159 1,100 -720 Descending FlightAware ADS-B
02:44AM -34.0060 151.1914 348° North 138 159 900 -660 Descending FlightAware ADS-B
02:44AM -33.9956 151.1888 348° North 135 155 700 -720 Descending FlightAware ADS-B
02:45AM -33.9740 151.1830 348° North 131 151 300 -720 Descending FlightAware
02:45AM -33.9560 151.1780 348° North 119 137 -600 Descending FlightAware
02:46AM -33.9506 151.1772 348° North 121 139  Level Aus ATC (RADAR)